• Join FlightAware (Why Join?)
  • Login
  • US Flag 
03:08PM EST


 

Airport Tracker/Info


-or-


 

Live Flight TrackerFlight Track Log ✈ FDX1570 ✈ 23-May-2013 ✈ KMEM - KALB

Flight Track Log - Related Links

Times and Time Zones

All times are in EDT time to prevent confusion due to time zone crossing. See the FDX1570 flight status page for this flight to view local times or setup timezone preferences in your user account.

Time Position Orientation Groundspeed Altitude Reporting Facility
EDT Latitude Longitude Course Direction KTS MPH feet Rate Location/Type
04:18AM 35.0167 -89.9667 180° South 190 219 1,400  Level KMEM
04:18AM 35.0000 -89.9667 180° South 187 215 1,900 1,740 Climbing KMEM
04:19AM 34.9333 -89.9333 158° South 272 313 3,700 2,520 Climbing KMEM
04:20AM 34.9333 -89.8333 90° East 288 331 7,300 3,060 Climbing KMEM
04:21AM 34.9642 -89.7692 60° Northeast 310 357 9,700 2,160 Climbing Memphis Center
04:22AM 35.0075 -89.6675 62° Northeast 355 409 11,300 1,740 Climbing Memphis Center
04:23AM 35.0589 -89.5503 62° Northeast 380 437 13,200 1,920 Climbing Memphis Center
04:24AM 35.1061 -89.4433 62° Northeast 391 450 15,200 1,980 Climbing Memphis Center
04:25AM 35.1656 -89.3181 60° Northeast 409 471 17,200 2,220 Climbing Memphis Center
04:26AM 35.2333 -89.1903 57° Northeast 429 494 19,700 9,900 Climbing Memphis Center
04:27AM 35.3050 -89.0619 56° Northeast 446 513 37,000 1,920 Climbing Memphis Center
04:33AM 35.7940 -88.2530 56° Northeast 501 577 33,200 -480 Descending FlightAware
04:34AM 35.8590 -88.1450 53° Northeast 507 583 34,200 1,320 Climbing FlightAware
04:35AM 35.9150 -88.0490 54° Northeast 510 587 35,100 1,500 Climbing FlightAware
04:35AM 35.9730 -87.9510 54° Northeast 501 577 36,400 1,320 Climbing FlightAware
04:36AM 36.0290 -87.8570 54° Northeast 494 568 37,000 420 Climbing FlightAware
04:37AM 36.0920 -87.7500 54° Northeast 506 582 37,000  Level FlightAware
04:37AM 36.1480 -87.6540 54° Northeast 508 585 37,000  Level FlightAware
04:38AM 36.2080 -87.5530 54° Northeast 505 581 37,000  Level FlightAware
04:39AM 36.2640 -87.4570 54° Northeast 505 581 37,000  Level FlightAware
04:39AM 36.3170 -87.3650 54° Northeast 503 579 37,000  Level FlightAware
04:40AM 36.3800 -87.2580 54° Northeast 500 575 37,000  Level FlightAware
04:41AM 36.4340 -87.1650 54° Northeast 499 574 37,000  Level FlightAware
04:42AM 36.4880 -87.0690 55° Northeast 498 573 37,000  Level FlightAware
04:42AM 36.5480 -86.9670 54° Northeast 497 572 37,000  Level FlightAware
04:43AM 36.6000 -86.8760 55° Northeast 497 572 37,000  Level FlightAware
04:44AM 36.6656 -86.7620 54° Northeast 498 573 37,000  Level FlightAware ADS-B
04:44AM 36.7070 -86.6896 54° Northeast 499 574 37,000  Level FlightAware ADS-B
04:45AM 36.7486 -86.6169 54° Northeast 499 574 37,000  Level FlightAware ADS-B
04:45AM 36.7894 -86.5443 55° Northeast 499 574 37,000  Level FlightAware ADS-B
04:46AM 36.8301 -86.4737 54° Northeast 500 575 37,000  Level FlightAware ADS-B
04:46AM 36.8708 -86.4002 55° Northeast 502 578 37,000  Level FlightAware ADS-B
04:47AM 36.9165 -86.3195 55° Northeast 505 581 37,000  Level FlightAware ADS-B
04:47AM 36.9577 -86.2456 55° Northeast 505 581 37,000  Level FlightAware ADS-B
04:48AM 36.9997 -86.1711 55° Northeast 507 583 37,000  Level FlightAware ADS-B
04:49AM 37.0710 -86.0460 54° Northeast 512 589 37,000  Level FlightAware
04:50AM 37.1290 -85.9410 55° Northeast 514 592 37,000  Level FlightAware
04:50AM 37.1680 -85.8720 55° Northeast 516 594 37,000  Level FlightAware
04:51AM 37.2340 -85.7530 55° Northeast 517 595 37,000  Level FlightAware
04:52AM 37.3050 -85.6250 55° Northeast 520 598 37,000 -180 Level FlightAware
04:52AM 37.3580 -85.5280 55° Northeast 519 597 36,800 -480 Descending FlightAware
04:53AM 37.3989 -85.4539 55° Northeast 519 597 36,500 -720 Descending FlightAware ADS-B
04:53AM 37.4399 -85.3801 55° Northeast 516 594 36,100 -1,020 Descending FlightAware ADS-B
04:54AM 37.4806 -85.3057 55° Northeast 518 596 35,500 -1,140 Descending FlightAware ADS-B
04:54AM 37.5222 -85.2286 56° Northeast 519 597 35,000 -540 Descending FlightAware ADS-B
04:55AM 37.5650 -85.1512 55° Northeast 520 598 35,000  Level FlightAware ADS-B
04:55AM 37.6063 -85.0736 56° Northeast 522 601 35,000  Level FlightAware ADS-B
04:56AM 37.6498 -84.9957 55° Northeast 523 602 35,000  Level FlightAware ADS-B
04:56AM 37.6974 -84.9077 56° Northeast 523 602 35,000  Level FlightAware ADS-B
04:57AM 37.7398 -84.8291 56° Northeast 527 606 35,000  Level FlightAware ADS-B
04:58AM 37.7884 -84.7373 56° Northeast 527 606 35,000  Level FlightAware ADS-B
04:58AM 37.8319 -84.6580 55° Northeast 531 611 35,000  Level FlightAware ADS-B
04:59AM 37.8756 -84.5752 56° Northeast 533 613 35,000  Level FlightAware ADS-B
04:59AM 37.9176 -84.4976 56° Northeast 534 615 35,000  Level FlightAware ADS-B
05:00AM 37.9636 -84.4096 56° Northeast 534 615 35,000  Level FlightAware ADS-B
05:01AM 38.0480 -84.2510 56° Northeast 535 616 35,000  Level FlightAware
05:02AM 38.1200 -84.1160 56° Northeast 535 616 35,000  Level FlightAware
05:02AM 38.1670 -84.0270 56° Northeast 535 616 35,000  Level FlightAware
05:03AM 38.2280 -83.9100 56° Northeast 537 618 35,000  Level FlightAware
05:04AM 38.2830 -83.8060 56° Northeast 537 618 35,000  Level FlightAware
05:04AM 38.3570 -83.6610 57° Northeast 533 613 35,000  Level FlightAware
05:05AM 38.4040 -83.5750 55° Northeast 532 612 35,000  Level FlightAware
05:06AM 38.4620 -83.4650 56° Northeast 532 612 35,000  Level FlightAware
05:07AM 38.5090 -83.3760 56° Northeast 532 612 35,000  Level FlightAware
05:07AM 38.5560 -83.2870 56° Northeast 532 612 35,000  Level FlightAware
05:08AM 38.6020 -83.1980 57° Northeast 532 612 35,000  Level FlightAware
05:09AM 38.6490 -83.1100 56° Northeast 532 612 35,000  Level FlightAware
05:09AM 38.7410 -82.9170 59° Northeast 535 616 35,000  Level FlightAware
05:10AM 38.8140 -82.7710 57° Northeast 538 619 35,000  Level FlightAware
05:11AM 38.8680 -82.6640 57° Northeast 537 618 35,000  Level FlightAware
05:11AM 38.9270 -82.5460 57° Northeast 538 619 35,000  Level FlightAware
05:12AM 38.9790 -82.4410 57° Northeast 537 618 35,000  Level FlightAware
05:13AM 39.0340 -82.3310 57° Northeast 538 619 35,000  Level FlightAware
05:14AM 39.0970 -82.2070 57° Northeast 538 619 35,000  Level FlightAware
05:14AM 39.1480 -82.1050 57° Northeast 538 619 35,000  Level FlightAware
05:15AM 39.2090 -81.9800 58° Northeast 538 619 35,000  Level FlightAware
05:16AM 39.2610 -81.8740 58° Northeast 537 618 35,000  Level FlightAware
05:16AM 39.3150 -81.7630 58° Northeast 536 617 35,000  Level FlightAware
05:17AM 39.3740 -81.6440 57° Northeast 536 617 35,000  Level FlightAware
05:18AM 39.4280 -81.5330 58° Northeast 535 616 35,000  Level FlightAware
05:18AM 39.4680 -81.4490 58° Northeast 535 616 35,000  Level FlightAware
05:19AM 39.5110 -81.3620 57° Northeast 534 615 35,000  Level FlightAware
05:20AM 39.5780 -81.2210 58° Northeast 535 616 35,000  Level FlightAware
05:20AM 39.6300 -81.1150 57° Northeast 536 617 35,000  Level FlightAware
05:21AM 39.6820 -81.0050 58° Northeast 538 619 35,000  Level FlightAware
05:22AM 39.7430 -80.8790 58° Northeast 540 621 35,000  Level FlightAware
05:22AM 39.7960 -80.7650 59° Northeast 542 624 35,000  Level FlightAware
05:23AM 39.8550 -80.6430 58° Northeast 543 625 35,000  Level FlightAware
05:24AM 39.9050 -80.5350 59° Northeast 543 625 35,000  Level FlightAware
05:24AM 39.9590 -80.4230 58° Northeast 544 626 35,000  Level FlightAware
05:25AM 40.0150 -80.3000 59° Northeast 543 625 35,000  Level FlightAware
05:26AM 40.0690 -80.1850 58° Northeast 542 624 35,000  Level FlightAware
05:27AM 40.1240 -80.0670 59° Northeast 543 625 35,000  Level FlightAware
05:27AM 40.1770 -79.9530 59° Northeast 542 624 35,000  Level FlightAware
05:28AM 40.2390 -79.8200 59° Northeast 543 625 35,000  Level FlightAware
05:29AM 40.2910 -79.7050 59° Northeast 543 625 35,000  Level FlightAware
05:29AM 40.3410 -79.5950 59° Northeast 542 624 35,000  Level FlightAware
05:30AM 40.3930 -79.4820 59° Northeast 542 624 35,000  Level FlightAware
05:31AM 40.4530 -79.3500 59° Northeast 540 621 35,000  Level FlightAware
05:31AM 40.5020 -79.2430 59° Northeast 540 621 35,000  Level FlightAware
05:32AM 40.5580 -79.1160 60° Northeast 537 618 35,000  Level FlightAware
05:33AM 40.6090 -79.0040 59° Northeast 533 613 35,000  Level FlightAware
05:34AM 40.6670 -78.8760 59° Northeast 528 608 35,000  Level FlightAware
05:34AM 40.7140 -78.7680 60° Northeast 524 603 35,000  Level FlightAware
05:35AM 40.7550 -78.6770 59° Northeast 522 601 35,000  Level FlightAware
05:36AM 40.8100 -78.5510 60° Northeast 521 600 35,000  Level FlightAware
05:36AM 40.8580 -78.4440 59° Northeast 520 598 35,000  Level FlightAware
05:37AM 40.9070 -78.3310 60° Northeast 519 597 35,000  Level FlightAware
05:38AM 40.9610 -78.2080 60° Northeast 518 596 35,000  Level FlightAware
05:38AM 41.0120 -78.1000 58° Northeast 518 596 35,000  Level FlightAware
05:39AM 41.0730 -77.9820 56° Northeast 517 595 35,000  Level FlightAware
05:40AM 41.1280 -77.8780 55° Northeast 519 597 35,000  Level FlightAware
05:40AM 41.1728 -77.7920 55° Northeast 518 596 35,000  Level FlightAware ADS-B
05:41AM 41.2155 -77.7114 55° Northeast 520 598 35,000  Level FlightAware ADS-B
05:41AM 41.2440 -77.6590 54° Northeast 519 597 35,000 -600 Level FlightAware
05:42AM 41.3010 -77.5490 55° Northeast 521 600 34,300 -1,200 Descending FlightAware
05:43AM 41.3575 -77.4442 54° Northeast 522 601 33,600 -1,440 Descending FlightAware ADS-B
05:43AM 41.4233 -77.3168 55° Northeast 525 604 32,400 -1,740 Descending FlightAware ADS-B
05:44AM 41.4730 -77.2210 55° Northeast 527 606 31,000 -2,040 Descending FlightAware
05:45AM 41.5350 -77.1020 55° Northeast 517 595 29,400 -1,440 Descending FlightAware
05:45AM 41.5890 -76.9970 55° Northeast 516 594 29,000 -300 Descending FlightAware
05:46AM 41.6480 -76.8830 55° Northeast 528 608 29,000 -180 Level FlightAware
05:47AM 41.7060 -76.7690 56° Northeast 528 608 28,800 -720 Descending FlightAware
05:48AM 41.7650 -76.6520 56° Northeast 531 611 28,000 -1,200 Descending FlightAware
05:48AM 41.8240 -76.5350 56° Northeast 534 615 27,100 -1,440 Descending FlightAware
05:49AM 41.8760 -76.4330 56° Northeast 539 620 26,100 -1,200 Descending FlightAware
05:50AM 41.9400 -76.3060 56° Northeast 535 616 25,400 -840 Descending FlightAware
05:50AM 41.9900 -76.2070 56° Northeast 528 608 25,000 -600 Descending FlightAware
05:51AM 42.0440 -76.0990 56° Northeast 522 601 24,700 -300 Descending FlightAware
05:52AM 42.1120 -75.9640 56° Northeast 520 598 24,600 -120 Descending FlightAware
05:53AM 42.1580 -75.8720 56° Northeast 520 598 24,600  Level FlightAware
05:53AM 42.2040 -75.7810 56° Northeast 520 598 24,600 -480 Level FlightAware
05:54AM 42.2760 -75.6300 57° Northeast 506 582 24,000 -720 Descending FlightAware
05:55AM 42.3360 -75.5080 56° Northeast 495 570 23,600 -600 Descending FlightAware
05:55AM 42.3830 -75.4130 56° Northeast 495 570 23,200 -300 Descending FlightAware
05:56AM 42.4270 -75.3250 56° Northeast 495 570 23,200  Level FlightAware
05:57AM 42.4700 -75.2380 56° Northeast 495 570 23,200  Level FlightAware
05:58AM 42.5250 -75.1280 56° Northeast 495 570 23,200  Level FlightAware
05:58AM 42.5680 -75.0410 56° Northeast 495 570 23,200  Level FlightAware
05:59AM 42.6120 -74.9530 56° Northeast 495 570 23,200 -9,360 Level FlightAware
05:59AM 42.5667 -74.7461 56° Northeast 414 476 11,700 -7,200 Descending Boston Center
06:01AM 42.5925 -74.6006 76° East 388 447 11,200 -540 Descending Boston Center
06:02AM 42.6153 -74.4969 73° East 332 382 10,600 -1,080 Descending Boston Center
06:03AM 42.6653 -74.3800 60° Northeast 319 367 9,100 -1,500 Descending Boston Center
06:04AM 42.7064 -74.2881 59° Northeast 314 361 7,700 -1,440 Descending Boston Center
06:05AM 42.7581 -74.1764 58° Northeast 314 361 6,300 -1,260 Descending Boston Center
06:06AM 42.7989 -74.0897 57° Northeast 314 361 5,200 -1,260 Descending Boston Center
06:07AM 42.8400 -73.9975 59° Northeast 301 346 3,800 -1,200 Descending Boston Center
06:08AM 42.8767 -73.8964 64° Northeast 279 321 2,800 -720 Descending Boston Center
06:09AM 42.8611 -73.8167 105° East 232 267 2,400 -900 Descending Boston Center
06:10AM 42.7964 -73.8097 175° South 115 132 1,000 -960 Descending Boston Center
06:11AM 42.7631 -73.8061 175° South 110 127 400 -600 Descending Boston Center